Terminal Aerodrome Forecast
Issued by NWS Wilmington, NC

Home | Current Version | Previous Version | Text Only | Print | Product List | Glossary On
Versions: 1 2 3 4 5 6 7 8 9 10 11 12
000
FTUS42 KILM 242320
TAFLBT
TAF
KLBT 242320Z 2500/2524 15007KT P6SM SKC
      TEMPO 2508/2511 VRB03KT 4SM BR=

USA.gov is the U.S. government's official web portal to all federal, state and local government web resources and services.